Time;durP1;ratioP1;P1;durP2;ratioP2;P2;SDS_P1;SDS_P2;PMS_P1;PMS_P2;Temp;Humidity;BMP_temperature;BMP_pressure;BME280_temperature;BME280_humidity;BME280_pressure;Samples;Min_cycle;Max_cycle;Signal;HPM_P1;HPM_P2
2021/01/17 00:00:23;;;;;;;25.45;13.25;;;-3.50;95.30;;;;;;5034213;28;20116;-73
2021/01/17 00:02:50;;;;;;;27.67;14.35;;;-3.60;95.30;;;;;;5034548;28;20048;-74
2021/01/17 00:05:18;;;;;;;24.88;13.10;;;-3.60;95.80;;;;;;5034738;28;20435;-73
2021/01/17 00:07:44;;;;;;;26.00;14.35;;;-3.80;95.40;;;;;;5052146;28;20024;-74
2021/01/17 00:10:12;;;;;;;24.02;13.63;;;-3.80;95.90;;;;;;5034751;28;20024;-74
2021/01/17 00:12:38;;;;;;;31.17;15.70;;;-3.80;95.50;;;;;;5052239;28;20028;-74
2021/01/17 00:15:10;;;;;;;27.10;14.60;;;-3.80;94.90;;;;;;5052194;28;20096;-74
2021/01/17 00:17:36;;;;;;;40.38;20.88;;;-3.90;94.80;;;;;;5017761;28;20167;-73
2021/01/17 00:20:10;;;;;;;32.97;14.85;;;-3.90;96.00;;;;;;5051962;28;20036;-73
2021/01/17 00:22:36;;;;;;;26.55;12.95;;;-3.90;96.50;;;;;;5052023;28;20033;-73
2021/01/17 00:25:07;;;;;;;31.13;13.80;;;-4.20;98.30;;;;;;5052053;28;20393;-73
2021/01/17 00:27:34;;;;;;;36.63;16.27;;;-4.00;99.90;;;;;;5034141;28;20512;-74
2021/01/17 00:30:01;;;;;;;38.85;19.52;;;-3.90;99.90;;;;;;5051975;28;20048;-74
2021/01/17 00:32:27;;;;;;;41.60;18.88;;;-3.70;99.90;;;;;;5051779;28;20431;-74
2021/01/17 00:34:52;;;;;;;35.10;17.02;;;-3.60;99.00;;;;;;5034149;28;20021;-73
2021/01/17 00:37:18;;;;;;;25.77;15.30;;;-3.70;98.80;;;;;;5034188;28;20507;-74
2021/01/17 00:39:45;;;;;;;31.05;16.70;;;-3.70;97.70;;;;;;5034145;28;20021;-73
2021/01/17 00:42:15;;;;;;;18.83;11.50;;;-3.60;98.60;;;;;;5052052;28;20052;-73
2021/01/17 00:44:41;;;;;;;21.30;11.93;;;-3.50;98.30;;;;;;5052662;28;20464;-74
2021/01/17 00:47:10;;;;;;;22.70;12.23;;;-3.50;97.40;;;;;;5034172;28;20115;-73
2021/01/17 00:49:36;;;;;;;23.55;12.88;;;-3.50;97.00;;;;;;5033468;28;20473;-73
2021/01/17 00:52:02;;;;;;;27.85;13.32;;;-3.60;97.10;;;;;;5033483;28;20040;-74
2021/01/17 00:54:27;;;;;;;22.27;12.70;;;-3.70;95.40;;;;;;5051466;28;20021;-74
2021/01/17 00:56:53;;;;;;;24.75;12.00;;;-3.70;96.60;;;;;;5051777;28;20025;-74
2021/01/17 00:59:19;;;;;;;23.25;11.80;;;-3.70;96.70;;;;;;5033456;28;20028;-74
2021/01/17 01:01:46;;;;;;;25.70;11.93;;;-3.80;95.00;;;;;;5051162;28;20063;-73
2021/01/17 01:04:15;;;;;;;20.60;12.00;;;-4.00;95.50;;;;;;5033278;28;20384;-73
2021/01/17 01:06:41;;;;;;;18.95;11.02;;;-3.90;96.60;;;;;;5033495;28;20049;-74
2021/01/17 01:09:08;;;;;;;18.65;11.13;;;-4.00;95.30;;;;;;5050954;28;20025;-74
2021/01/17 01:11:34;;;;;;;19.15;10.50;;;-3.90;96.20;;;;;;5051347;28;20021;-73
2021/01/17 01:14:00;;;;;;;21.73;11.32;;;-3.80;96.40;;;;;;5051062;28;20029;-73
2021/01/17 01:16:26;;;;;;;22.38;11.40;;;-3.90;94.80;;;;;;5033111;28;20481;-73
2021/01/17 01:18:52;;;;;;;22.33;11.55;;;-3.70;94.90;;;;;;5033474;28;20086;-72
2021/01/17 01:21:27;;;;;;;23.42;12.07;;;-3.80;94.00;;;;;;5051114;28;20098;-74
2021/01/17 01:23:53;;;;;;;19.98;10.00;;;-3.80;94.20;;;;;;5050870;28;20090;-73
2021/01/17 01:26:21;;;;;;;17.67;10.48;;;-3.90;95.50;;;;;;5050471;28;20028;-73
2021/01/17 01:28:52;;;;;;;21.77;10.40;;;-4.00;96.50;;;;;;5033192;28;20025;-74
2021/01/17 01:31:23;;;;;;;22.10;11.30;;;-3.90;97.30;;;;;;5050607;28;20540;-74
2021/01/17 01:33:50;;;;;;;13.90;8.23;;;-3.80;97.50;;;;;;5033119;28;20059;-74
2021/01/17 01:36:20;;;;;;;23.65;10.77;;;-3.70;97.60;;;;;;5032809;28;20041;-74
2021/01/17 01:38:47;;;;;;;21.10;11.40;;;-3.60;96.70;;;;;;5032762;28;20067;-74
2021/01/17 01:41:13;;;;;;;18.73;9.63;;;-3.70;96.80;;;;;;5016583;28;20029;-74
2021/01/17 01:43:39;;;;;;;19.80;10.05;;;-3.50;97.50;;;;;;5050412;28;20392;-74
2021/01/17 01:46:04;;;;;;;19.20;9.65;;;-3.40;97.40;;;;;;5032762;28;20017;-73
2021/01/17 01:48:32;;;;;;;22.67;11.90;;;-3.30;96.10;;;;;;5050965;28;20346;-74
2021/01/17 01:50:58;;;;;;;18.55;10.43;;;-3.50;95.10;;;;;;5016396;28;20025;-74
2021/01/17 01:53:25;;;;;;;14.70;8.35;;;-3.40;96.10;;;;;;5032828;28;20505;-74
2021/01/17 01:55:51;;;;;;;13.80;7.53;;;-3.30;96.20;;;;;;5050590;28;20060;-73
2021/01/17 01:58:21;;;;;;;13.25;7.28;;;-3.20;94.30;;;;;;5050449;28;20489;-74
2021/01/17 02:00:47;;;;;;;14.35;7.93;;;-3.20;93.40;;;;;;5032775;28;20028;-74
2021/01/17 02:03:12;;;;;;;13.35;7.55;;;-3.20;93.60;;;;;;5019688;28;20029;-73
2021/01/17 02:05:38;;;;;;;18.10;7.72;;;-3.40;92.80;;;;;;5037149;28;20461;-73
2021/01/17 02:08:28;;;;;;;12.88;7.03;;;-3.20;94.00;;;;;;5054617;28;20148;-74
2021/01/17 02:11:02;;;;;;;13.68;6.95;;;-3.10;93.40;;;;;;5037051;28;20025;-73
2021/01/17 02:13:39;;;;;;;10.98;7.22;;;-3.20;92.80;;;;;;5037438;28;20021;-74
2021/01/17 02:16:07;;;;;;;13.18;7.53;;;-3.20;92.80;;;;;;5036797;28;20415;-74
2021/01/17 02:18:40;;;;;;;11.18;6.25;;;-3.20;93.20;;;;;;5020363;28;20021;-73
2021/01/17 02:21:08;;;;;;;14.32;7.32;;;-3.20;92.50;;;;;;5020460;28;20029;-74
2021/01/17 02:23:48;;;;;;;12.30;6.43;;;-3.20;92.00;;;;;;5055205;28;20087;-73
2021/01/17 02:26:14;;;;;;;12.98;6.43;;;-3.20;92.40;;;;;;5054480;28;20526;-74
2021/01/17 02:28:43;;;;;;;12.45;7.13;;;-3.30;93.20;;;;;;5036883;28;20021;-73
2021/01/17 02:31:09;;;;;;;11.73;6.53;;;-3.30;93.70;;;;;;5036337;28;20078;-74
2021/01/17 02:33:38;;;;;;;12.18;6.68;;;-3.40;93.50;;;;;;5036888;28;20391;-73
2021/01/17 02:36:22;;;;;;;10.90;6.82;;;-3.50;94.20;;;;;;5054012;28;20025;-73
2021/01/17 02:39:15;;;;;;;13.82;6.93;;;-3.40;94.70;;;;;;5054202;28;20025;-74
2021/01/17 02:41:52;;;;;;;12.38;7.03;;;-3.60;94.80;;;;;;5036255;28;20025;-74
2021/01/17 02:44:19;;;;;;;13.88;7.13;;;-3.70;95.60;;;;;;5036255;28;20159;-74
2021/01/17 02:46:45;;;;;;;12.07;6.25;;;-3.80;96.40;;;;;;5035991;28;20029;-73
2021/01/17 02:49:11;;;;;;;10.95;7.72;;;-3.80;97.60;;;;;;5036171;28;20025;-73
2021/01/17 02:51:37;;;;;;;8.40;5.72;;;-3.70;99.10;;;;;;5019341;28;20024;-73
2021/01/17 02:54:08;;;;;;;11.68;6.30;;;-3.70;98.80;;;;;;5053948;28;20106;-74
2021/01/17 02:56:37;;;;;;;13.60;6.57;;;-3.50;99.90;;;;;;5035949;28;20032;-73
2021/01/17 02:59:06;;;;;;;11.43;7.05;;;-3.40;99.50;;;;;;5053697;28;20020;-74
2021/01/17 03:01:35;;;;;;;11.90;6.93;;;-3.30;99.00;;;;;;5035707;28;20488;-74
2021/01/17 03:04:19;;;;;;;14.68;7.15;;;-3.10;99.10;;;;;;5053333;28;20064;-73
2021/01/17 03:06:46;;;;;;;11.82;6.70;;;-2.90;99.10;;;;;;5035775;28;20032;-73
2021/01/17 03:09:13;;;;;;;12.18;6.68;;;-2.70;98.30;;;;;;5052943;28;20099;-74
2021/01/17 03:11:38;;;;;;;12.00;7.10;;;-2.60;97.90;;;;;;5035468;28;20024;-74
2021/01/17 03:14:06;;;;;;;8.48;5.75;;;-2.50;98.40;;;;;;5034445;28;20025;-73
2021/01/17 03:16:34;;;;;;;13.48;6.43;;;-2.50;97.50;;;;;;5035444;28;20021;-74
2021/01/17 03:19:00;;;;;;;11.55;6.80;;;-2.40;98.80;;;;;;5052998;28;20040;-74
2021/01/17 03:21:25;;;;;;;12.57;7.13;;;-2.50;97.40;;;;;;5035356;28;20033;-74
2021/01/17 03:23:51;;;;;;;12.82;7.38;;;-2.60;98.20;;;;;;5053032;28;20028;-74
2021/01/17 03:26:17;;;;;;;12.40;7.70;;;-2.50;98.00;;;;;;5052803;28;20465;-74
2021/01/17 03:28:43;;;;;;;12.20;6.40;;;-2.30;99.20;;;;;;5035257;28;20028;-74
2021/01/17 03:31:09;;;;;;;12.15;6.80;;;-2.40;97.20;;;;;;5035013;28;20048;-74
2021/01/17 03:33:35;;;;;;;14.45;7.22;;;-2.60;98.30;;;;;;5053004;28;20025;-73
2021/01/17 03:36:00;;;;;;;12.15;6.97;;;-2.70;99.00;;;;;;5018082;28;20025;-73
2021/01/17 03:38:26;;;;;;;11.07;6.72;;;-2.80;99.90;;;;;;5052840;28;20056;-73
2021/01/17 03:40:52;;;;;;;15.13;7.28;;;-2.80;99.90;;;;;;5018065;28;20029;-74
2021/01/17 03:43:18;;;;;;;11.55;6.65;;;-3.20;99.90;;;;;;5034908;28;20032;-74
2021/01/17 03:45:43;;;;;;;12.73;7.18;;;-3.20;99.90;;;;;;5034755;28;20547;-74
2021/01/17 03:48:09;;;;;;;14.52;7.30;;;-3.10;99.90;;;;;;5035365;28;20087;-74
2021/01/17 03:50:35;;;;;;;12.18;7.20;;;-3.10;99.90;;;;;;5052800;28;20070;-74
2021/01/17 03:53:01;;;;;;;12.88;7.00;;;-3.10;99.90;;;;;;5035748;28;20021;-74
2021/01/17 03:55:26;;;;;;;11.77;6.57;;;-3.10;99.90;;;;;;5053088;28;20385;-73
2021/01/17 03:57:52;;;;;;;12.20;6.80;;;-3.10;99.90;;;;;;5035064;28;20029;-74
2021/01/17 04:00:18;;;;;;;14.38;8.00;;;-2.80;99.90;;;;;;5034938;28;20091;-74
2021/01/17 04:02:44;;;;;;;12.52;7.38;;;-2.70;99.90;;;;;;5034164;28;20267;-74
2021/01/17 04:05:10;;;;;;;10.50;6.88;;;-2.50;99.90;;;;;;5034465;28;20544;-73
2021/01/17 04:07:36;;;;;;;12.15;7.05;;;-2.40;99.90;;;;;;5033603;28;20429;-74
2021/01/17 04:10:03;;;;;;;12.80;6.82;;;-2.30;99.90;;;;;;5034402;28;20117;-74
2021/01/17 04:12:28;;;;;;;14.02;6.78;;;-2.30;99.90;;;;;;5034337;28;20361;-73
2021/01/17 04:14:54;;;;;;;10.80;6.90;;;-2.70;99.90;;;;;;5034205;28;20035;-74
2021/01/17 04:17:20;;;;;;;11.10;6.65;;;-2.70;99.90;;;;;;5051978;28;20051;-74
2021/01/17 04:19:46;;;;;;;10.93;6.45;;;-2.50;99.90;;;;;;5052182;28;20373;-74
2021/01/17 04:22:11;;;;;;;8.65;5.60;;;-2.40;99.90;;;;;;5051798;28;20572;-74
2021/01/17 04:24:37;;;;;;;10.68;6.28;;;-2.50;99.90;;;;;;5033886;28;20039;-74
2021/01/17 04:27:03;;;;;;;10.75;6.65;;;-2.40;99.90;;;;;;5017514;28;20480;-74
2021/01/17 04:29:29;;;;;;;15.48;6.93;;;-2.40;99.90;;;;;;5017238;28;20028;-74
2021/01/17 04:31:55;;;;;;;9.25;6.45;;;-2.50;99.90;;;;;;5051743;28;20036;-74
2021/01/17 04:34:22;;;;;;;10.10;6.18;;;-2.50;99.90;;;;;;5016936;28;20120;-74
2021/01/17 04:36:49;;;;;;;10.70;7.10;;;-2.40;99.90;;;;;;5051667;28;20035;-75
2021/01/17 04:39:15;;;;;;;11.30;6.35;;;-2.40;99.90;;;;;;5051481;28;20033;-74
2021/01/17 04:41:42;;;;;;;10.50;6.47;;;-2.30;99.90;;;;;;5051866;28;20079;-74
2021/01/17 04:44:10;;;;;;;12.63;6.13;;;-2.40;99.90;;;;;;5051359;28;20060;-74
2021/01/17 04:46:37;;;;;;;10.75;6.70;;;-2.80;99.90;;;;;;5051515;28;20025;-74
2021/01/17 04:49:06;;;;;;;12.25;7.00;;;-2.50;99.90;;;;;;5017172;28;20432;-74
2021/01/17 04:51:32;;;;;;;8.60;5.72;;;-2.50;99.90;;;;;;5033236;28;20047;-75
2021/01/17 04:53:58;;;;;;;12.10;5.90;;;-2.50;99.90;;;;;;5051423;28;20323;-75
2021/01/17 04:56:25;;;;;;;9.98;5.82;;;-2.30;99.90;;;;;;5051096;28;20047;-74
2021/01/17 04:59:12;;;;;;;8.27;5.20;;;-2.40;99.90;;;;;;5033565;28;20388;-74
2021/01/17 05:01:47;;;;;;;9.27;5.75;;;-2.70;99.90;;;;;;5033074;28;20025;-75
2021/01/17 05:04:35;;;;;;;8.98;5.43;;;-2.70;99.90;;;;;;5051280;28;20025;-74
2021/01/17 05:07:14;;;;;;;9.98;5.93;;;-2.50;99.90;;;;;;5033064;28;20028;-74
2021/01/17 05:09:45;;;;;;;9.70;5.38;;;-2.60;99.90;;;;;;5016698;28;20024;-74
2021/01/17 05:12:15;;;;;;;10.63;5.63;;;-2.60;99.90;;;;;;5051164;28;20013;-74
2021/01/17 05:14:54;;;;;;;8.93;5.03;;;-2.30;99.90;;;;;;5050965;28;20025;-74
2021/01/17 05:17:21;;;;;;;7.03;5.07;;;-2.40;99.90;;;;;;5016573;28;20033;-74
2021/01/17 05:19:47;;;;;;;12.95;6.28;;;-2.30;99.90;;;;;;5016880;28;20027;-75
2021/01/17 05:22:14;;;;;;;8.65;4.70;;;-2.10;99.90;;;;;;5050501;28;20024;-74
2021/01/17 05:24:42;;;;;;;7.93;4.95;;;-2.10;99.90;;;;;;5051057;28;20063;-75
2021/01/17 05:27:08;;;;;;;5.93;4.72;;;-2.10;99.90;;;;;;5032734;28;20017;-75
2021/01/17 05:29:34;;;;;;;6.90;4.25;;;-2.00;99.90;;;;;;5050806;28;20427;-74
2021/01/17 05:32:02;;;;;;;8.85;5.25;;;-1.90;99.90;;;;;;5050909;28;20052;-75
2021/01/17 05:34:30;;;;;;;15.15;7.55;;;-1.70;99.90;;;;;;5050652;28;20492;-75
2021/01/17 05:37:04;;;;;;;9.32;5.68;;;-1.50;99.90;;;;;;5050426;28;20081;-75
2021/01/17 05:39:31;;;;;;;11.95;6.50;;;-1.50;99.90;;;;;;5016505;28;20086;-75
2021/01/17 05:42:08;;;;;;;11.80;6.53;;;-1.40;99.90;;;;;;5032993;28;20031;-74
2021/01/17 05:44:34;;;;;;;15.30;7.65;;;-1.30;99.90;;;;;;5016423;28;20021;-74
2021/01/17 05:47:06;;;;;;;11.90;6.65;;;-1.50;99.90;;;;;;5033579;28;20029;-74
2021/01/17 05:49:33;;;;;;;9.20;5.70;;;-1.30;99.90;;;;;;5051060;28;20021;-74
2021/01/17 05:52:19;;;;;;;10.07;6.25;;;-1.40;99.90;;;;;;5051314;28;20029;-75
2021/01/17 05:54:49;;;;;;;9.70;6.30;;;-1.60;99.90;;;;;;5050517;28;20100;-75
2021/01/17 05:57:25;;;;;;;9.05;5.75;;;-1.90;99.90;;;;;;5050677;28;20029;-75
2021/01/17 05:59:51;;;;;;;8.63;5.97;;;-2.10;99.90;;;;;;5032612;28;20029;-74
2021/01/17 06:02:19;;;;;;;10.48;6.03;;;-2.00;99.90;;;;;;5032713;28;20029;-75
2021/01/17 06:05:08;;;;;;;9.45;5.90;;;-1.80;99.90;;;;;;5050531;28;20385;-74
2021/01/17 06:07:33;;;;;;;10.13;5.68;;;-1.80;99.90;;;;;;5015142;28;20063;-75
2021/01/17 06:10:03;;;;;;;9.27;5.32;;;-1.80;99.90;;;;;;5050243;28;20017;-75
2021/01/17 06:12:30;;;;;;;10.07;4.95;;;-1.80;99.90;;;;;;5050654;28;20037;-75
2021/01/17 06:15:11;;;;;;;13.85;5.95;;;-1.70;99.90;;;;;;5050265;28;20024;-75
2021/01/17 06:17:57;;;;;;;9.05;5.45;;;-1.50;99.90;;;;;;5032771;28;20098;-75
2021/01/17 06:20:27;;;;;;;10.57;5.75;;;-1.60;99.90;;;;;;5050354;28;20062;-75
2021/01/17 06:22:58;;;;;;;8.45;5.78;;;-1.70;99.90;;;;;;5050269;28;20036;-74
2021/01/17 06:25:28;;;;;;;7.43;4.10;;;-1.70;99.90;;;;;;5032587;28;20025;-74
2021/01/17 06:28:10;;;;;;;9.43;5.75;;;-1.70;99.90;;;;;;5050061;28;20021;-74
2021/01/17 06:30:36;;;;;;;7.22;4.57;;;-1.70;99.90;;;;;;5032373;28;20406;-74
2021/01/17 06:33:03;;;;;;;8.48;5.00;;;-1.70;99.90;;;;;;5049993;28;20068;-74
2021/01/17 06:35:37;;;;;;;10.15;5.47;;;-1.90;99.90;;;;;;5032352;28;20040;-75
2021/01/17 06:38:20;;;;;;;6.63;4.40;;;-1.80;99.90;;;;;;5032069;28;20511;-74
2021/01/17 06:40:49;;;;;;;9.32;5.00;;;-1.70;99.90;;;;;;5032184;28;20021;-75
2021/01/17 06:43:15;;;;;;;8.88;5.03;;;-1.60;99.90;;;;;;5050072;28;20032;-75
2021/01/17 06:45:43;;;;;;;6.65;4.43;;;-1.60;99.90;;;;;;5050141;28;20024;-75
2021/01/17 06:48:20;;;;;;;9.13;4.70;;;-1.60;99.90;;;;;;5032261;28;20053;-74
2021/01/17 06:50:46;;;;;;;9.32;5.55;;;-1.60;99.90;;;;;;5035717;28;20476;-75
2021/01/17 06:53:23;;;;;;;6.75;4.20;;;-1.60;99.90;;;;;;5053480;28;20029;-75
2021/01/17 06:56:09;;;;;;;8.63;4.82;;;-1.50;99.90;;;;;;5053587;28;20083;-75
2021/01/17 06:58:40;;;;;;;8.23;4.40;;;-1.50;99.90;;;;;;5053566;28;20021;-74
2021/01/17 07:01:06;;;;;;;7.70;5.10;;;-1.60;99.90;;;;;;5053504;28;20028;-75
2021/01/17 07:03:53;;;;;;;9.18;4.53;;;-1.60;99.90;;;;;;5053181;28;20766;-74
2021/01/17 07:06:38;;;;;;;11.00;4.55;;;-1.50;99.90;;;;;;5053399;28;20416;-75
2021/01/17 07:09:17;;;;;;;10.13;4.82;;;-1.40;99.90;;;;;;5018624;28;20114;-74
2021/01/17 07:12:12;;;;;;;8.85;4.32;;;-1.50;99.90;;;;;;5053485;28;20013;-75
2021/01/17 07:14:41;;;;;;;7.07;4.85;;;-1.30;99.90;;;;;;5053012;28;20040;-75
2021/01/17 07:17:09;;;;;;;8.10;4.40;;;-1.40;99.90;;;;;;5053271;28;20020;-74
2021/01/17 07:19:39;;;;;;;13.07;6.28;;;-1.50;99.90;;;;;;5053035;28;20051;-74
2021/01/17 07:22:05;;;;;;;6.00;3.53;;;-1.40;99.90;;;;;;5053385;28;20049;-74
2021/01/17 07:24:33;;;;;;;5.78;4.07;;;-1.50;99.90;;;;;;5053190;28;20567;-75
2021/01/17 07:27:25;;;;;;;6.38;4.00;;;-1.70;99.90;;;;;;5035400;28;20074;-73
2021/01/17 07:29:52;;;;;;;4.18;2.83;;;-1.80;99.90;;;;;;5035273;28;20017;-76
2021/01/17 07:32:53;;;;;;;7.45;3.92;;;-1.80;99.90;;;;;;5053405;28;20021;-75
2021/01/17 07:35:24;;;;;;;6.68;3.45;;;-1.80;99.90;;;;;;5053728;28;20048;-77
2021/01/17 07:37:55;;;;;;;7.75;4.00;;;-1.90;99.90;;;;;;5053860;28;20025;-77
2021/01/17 07:43:11;;;;;;;6.53;4.28;;;-1.90;99.90;;;;;;5035190;28;20048;-76
2021/01/17 07:45:39;;;;;;;10.38;5.75;;;-1.80;99.90;;;;;;5034980;28;20013;-76
2021/01/17 07:48:13;;;;;;;10.32;4.88;;;-1.60;99.90;;;;;;5034882;28;20025;-76
2021/01/17 07:50:41;;;;;;;8.85;5.13;;;-1.70;99.90;;;;;;5018253;28;20017;-77
2021/01/17 07:53:19;;;;;;;11.32;5.70;;;-1.60;99.90;;;;;;5034443;28;20396;-76
2021/01/17 07:55:46;;;;;;;18.08;6.85;;;-1.50;99.90;;;;;;5052524;28;20029;-76
2021/01/17 07:58:13;;;;;;;10.52;5.38;;;-1.60;99.90;;;;;;5034309;28;20021;-76
2021/01/17 08:00:39;;;;;;;6.65;3.97;;;-1.60;99.90;;;;;;5034360;28;20128;-76
2021/01/17 08:03:05;;;;;;;7.15;4.25;;;-1.50;99.90;;;;;;5052082;28;20021;-76
2021/01/17 08:06:07;;;;;;;6.32;4.43;;;-1.40;99.90;;;;;;5034310;28;20017;-76
2021/01/17 08:08:35;;;;;;;5.40;3.65;;;-1.50;99.90;;;;;;4951273;29;20168;-74
2021/01/17 08:11:02;;;;;;;5.38;3.63;;;-1.50;99.90;;;;;;5016033;28;20044;-74
2021/01/17 08:13:32;;;;;;;4.75;3.83;;;-1.30;99.90;;;;;;5033993;28;20029;-74
2021/01/17 08:16:11;;;;;;;6.72;4.07;;;-1.20;99.90;;;;;;5050792;28;20027;-74
2021/01/17 08:18:38;;;;;;;10.57;4.25;;;-1.30;99.90;;;;;;5047476;28;20025;-74
2021/01/17 08:21:24;;;;;;;6.63;3.80;;;-1.40;99.90;;;;;;5071979;28;20021;-74
2021/01/17 08:24:11;;;;;;;6.70;4.32;;;-1.30;99.90;;;;;;5071458;28;20103;-74
2021/01/17 08:26:58;;;;;;;7.88;5.03;;;-1.30;99.90;;;;;;5037310;28;20104;-74
2021/01/17 08:29:25;;;;;;;6.93;4.68;;;-1.20;99.90;;;;;;5071673;28;20024;-74
2021/01/17 08:31:51;;;;;;;4.97;3.95;;;-1.30;99.90;;;;;;5053820;28;20419;-74
2021/01/17 08:34:23;;;;;;;9.52;5.22;;;-1.40;99.90;;;;;;5053467;28;20024;-73
2021/01/17 08:36:49;;;;;;;6.10;4.07;;;-1.30;99.90;;;;;;5053796;28;20031;-74
2021/01/17 08:39:43;;;;;;;6.43;4.68;;;-1.20;99.90;;;;;;5037095;28;20029;-74
2021/01/17 08:42:47;;;;;;;8.73;4.75;;;-1.10;99.90;;;;;;5048855;28;20085;-74
2021/01/17 08:45:35;;;;;;;8.27;4.47;;;-1.10;99.90;;;;;;5035986;28;20301;-74
2021/01/17 08:48:19;;;;;;;7.38;4.65;;;-1.10;99.90;;;;;;5053772;28;20027;-74
2021/01/17 08:50:46;;;;;;;5.45;3.55;;;-0.90;99.90;;;;;;5053262;28;20024;-74
2021/01/17 08:53:14;;;;;;;6.47;4.20;;;-0.80;99.90;;;;;;5071230;28;20333;-74
2021/01/17 08:55:41;;;;;;;6.82;4.55;;;-0.80;99.90;;;;;;5053283;28;20115;-74
2021/01/17 08:58:08;;;;;;;7.30;4.15;;;-0.60;99.90;;;;;;5071079;28;20036;-74
2021/01/17 09:00:49;;;;;;;9.90;4.38;;;-0.30;99.90;;;;;;5070860;28;20131;-74
2021/01/17 09:03:36;;;;;;;14.83;5.00;;;-0.20;99.90;;;;;;5053807;28;20021;-74
2021/01/17 09:06:03;;;;;;;6.90;4.00;;;0.00;99.90;;;;;;5034620;28;20473;-74
2021/01/17 09:08:31;;;;;;;12.32;3.88;;;0.10;99.90;;;;;;5033223;28;20473;-74
2021/01/17 09:10:57;;;;;;;6.30;3.65;;;0.20;99.90;;;;;;5050211;28;20044;-74
2021/01/17 09:13:32;;;;;;;6.40;3.90;;;0.20;99.90;;;;;;5032951;28;20032;-74
2021/01/17 09:16:00;;;;;;;12.63;5.07;;;0.10;99.90;;;;;;5033155;28;20025;-74
2021/01/17 09:18:28;;;;;;;8.32;5.03;;;0.30;99.90;;;;;;5050733;28;20536;-74
2021/01/17 09:20:55;;;;;;;18.27;5.53;;;0.30;99.90;;;;;;5050824;28;20029;-74
2021/01/17 09:23:22;;;;;;;6.18;4.47;;;0.50;99.90;;;;;;5035119;28;20159;-74
2021/01/17 09:25:58;;;;;;;10.85;5.88;;;0.50;99.90;;;;;;5071264;28;20020;-74
2021/01/17 09:28:25;;;;;;;9.45;4.65;;;0.50;99.90;;;;;;5053669;28;20195;-74
2021/01/17 09:30:52;;;;;;;9.48;4.68;;;0.40;99.90;;;;;;5052758;28;20024;-74
2021/01/17 09:33:19;;;;;;;7.63;4.78;;;0.60;99.90;;;;;;5071020;28;20031;-74
2021/01/17 09:35:46;;;;;;;20.80;5.55;;;0.70;99.90;;;;;;5036037;28;20098;-74
2021/01/17 09:38:13;;;;;;;9.30;4.72;;;0.80;99.90;;;;;;5070845;28;20021;-74
2021/01/17 09:40:45;;;;;;;22.55;6.32;;;0.80;99.90;;;;;;5052632;28;20496;-74
2021/01/17 09:43:11;;;;;;;12.90;4.20;;;1.00;99.90;;;;;;5070677;28;20020;-74
2021/01/17 09:45:37;;;;;;;10.57;5.05;;;0.80;99.90;;;;;;5052247;28;20115;-74
2021/01/17 09:48:04;;;;;;;7.45;4.63;;;0.90;99.90;;;;;;5038776;28;20021;-74
2021/01/17 09:50:34;;;;;;;13.63;5.30;;;0.90;99.90;;;;;;5050652;28;20025;-74
2021/01/17 09:53:08;;;;;;;13.98;5.47;;;1.10;99.90;;;;;;5050312;28;20477;-74
2021/01/17 09:55:43;;;;;;;11.80;5.95;;;1.10;99.90;;;;;;5050349;28;20032;-73
2021/01/17 09:58:12;;;;;;;11.90;5.72;;;1.00;99.90;;;;;;5050059;28;20029;-74
2021/01/17 10:00:42;;;;;;;17.92;5.93;;;1.00;99.90;;;;;;5050498;28;20021;-74
2021/01/17 10:03:09;;;;;;;12.27;7.03;;;1.10;99.90;;;;;;5050141;28;20028;-74
2021/01/17 10:05:36;;;;;;;14.63;6.80;;;0.90;99.90;;;;;;5015984;28;20021;-74
2021/01/17 10:08:03;;;;;;;16.58;6.68;;;0.90;99.90;;;;;;5032250;28;20503;-74
2021/01/17 10:10:30;;;;;;;9.48;6.32;;;0.80;99.90;;;;;;5032425;28;20358;-74
2021/01/17 10:12:56;;;;;;;11.63;6.63;;;0.90;99.90;;;;;;5032467;28;20108;-74
2021/01/17 10:15:24;;;;;;;20.38;6.85;;;0.90;99.90;;;;;;5050247;28;20480;-74
2021/01/17 10:17:52;;;;;;;16.42;6.00;;;1.00;99.90;;;;;;5050280;28;20036;-74
2021/01/17 10:20:25;;;;;;;24.55;8.82;;;1.10;99.90;;;;;;5032342;28;20400;-74
2021/01/17 10:23:05;;;;;;;27.38;10.40;;;1.20;99.90;;;;;;5033575;28;20025;-74
2021/01/17 10:25:33;;;;;;;21.65;8.95;;;1.20;99.90;;;;;;5073594;28;20481;-74
2021/01/17 10:28:04;;;;;;;14.68;7.97;;;1.20;99.90;;;;;;5056052;28;20503;-74
2021/01/17 10:30:32;;;;;;;23.48;10.23;;;1.30;99.90;;;;;;5073716;28;20024;-74
2021/01/17 10:33:03;;;;;;;20.02;10.38;;;1.30;99.90;;;;;;5034975;28;20031;-74
2021/01/17 10:35:34;;;;;;;22.37;9.63;;;1.40;99.90;;;;;;5073346;28;20095;-74
2021/01/17 10:38:04;;;;;;;13.48;8.38;;;1.30;99.90;;;;;;5073634;28;20612;-74
2021/01/17 10:40:30;;;;;;;16.45;9.02;;;1.40;99.90;;;;;;5055571;28;20024;-74
2021/01/17 10:43:00;;;;;;;16.08;8.65;;;1.40;99.90;;;;;;5073617;28;20484;-73
2021/01/17 10:45:27;;;;;;;21.83;9.18;;;1.40;99.90;;;;;;5055797;28;20380;-74
2021/01/17 10:48:08;;;;;;;23.73;10.48;;;1.30;99.90;;;;;;5073371;28;20047;-74
2021/01/17 10:50:51;;;;;;;34.63;9.43;;;1.10;99.90;;;;;;5055795;28;20025;-74
2021/01/17 10:53:46;;;;;;;11.68;6.63;;;1.20;99.90;;;;;;5073801;28;20412;-74
2021/01/17 10:56:16;;;;;;;15.40;7.88;;;1.20;99.90;;;;;;5055605;28;20097;-74
2021/01/17 10:58:44;;;;;;;19.80;9.85;;;1.20;99.90;;;;;;5055503;28;20028;-74
2021/01/17 11:01:10;;;;;;;37.45;10.27;;;1.20;99.90;;;;;;5073396;28;20078;-74
2021/01/17 11:03:40;;;;;;;20.95;9.38;;;1.20;99.90;;;;;;5055320;28;20029;-73
2021/01/17 11:06:14;;;;;;;33.05;10.23;;;1.10;99.90;;;;;;5055492;28;20025;-73
2021/01/17 11:08:44;;;;;;;14.40;7.40;;;1.00;99.90;;;;;;5073224;28;20017;-76
2021/01/17 11:11:11;;;;;;;22.45;7.88;;;0.90;99.90;;;;;;5073904;28;20017;-74
2021/01/17 11:13:37;;;;;;;21.20;9.77;;;1.20;99.90;;;;;;5073516;28;20028;-74
2021/01/17 11:16:04;;;;;;;19.73;8.30;;;1.40;99.90;;;;;;5056073;28;20097;-74
2021/01/17 11:18:30;;;;;;;16.45;9.57;;;1.40;99.90;;;;;;5073645;28;20586;-74
2021/01/17 11:20:58;;;;;;;12.55;7.30;;;1.40;99.90;;;;;;5073583;28;20477;-74
2021/01/17 11:23:26;;;;;;;18.75;9.20;;;1.70;99.90;;;;;;5055042;28;20503;-74
2021/01/17 11:26:11;;;;;;;15.23;9.40;;;1.90;99.90;;;;;;5055050;28;20097;-74
2021/01/17 11:28:36;;;;;;;14.10;9.27;;;1.90;99.90;;;;;;5073113;28;20025;-74
2021/01/17 11:31:13;;;;;;;17.75;8.85;;;1.80;99.90;;;;;;5055249;28;20032;-74
2021/01/17 11:33:39;;;;;;;14.95;8.02;;;1.60;99.90;;;;;;5055054;28;20090;-74
2021/01/17 11:36:05;;;;;;;18.33;8.73;;;1.50;99.90;;;;;;5037873;28;20036;-74
2021/01/17 11:38:54;;;;;;;20.08;9.90;;;1.50;99.90;;;;;;5054865;28;20637;-74
2021/01/17 11:41:23;;;;;;;18.00;8.93;;;1.50;99.90;;;;;;5072600;28;20104;-74
2021/01/17 11:43:49;;;;;;;13.95;7.50;;;1.50;99.90;;;;;;5054655;28;20036;-74
2021/01/17 11:46:16;;;;;;;16.67;8.27;;;1.40;99.90;;;;;;5051779;28;20094;-74
2021/01/17 11:48:43;;;;;;;19.92;9.80;;;1.40;99.90;;;;;;5038090;28;20016;-74
2021/01/17 11:51:11;;;;;;;15.68;8.35;;;1.40;99.90;;;;;;5054553;28;20031;-74
2021/01/17 11:53:37;;;;;;;24.88;9.73;;;1.40;99.90;;;;;;5072540;28;20035;-74
2021/01/17 11:56:04;;;;;;;15.63;8.15;;;1.60;99.90;;;;;;5072039;28;20479;-74
2021/01/17 11:58:39;;;;;;;15.93;8.07;;;1.50;99.90;;;;;;5054580;28;20055;-74
2021/01/17 12:01:05;;;;;;;26.48;10.73;;;1.30;99.90;;;;;;5037479;28;20021;-73
2021/01/17 12:03:41;;;;;;;20.95;9.80;;;1.40;99.90;;;;;;5054019;28;20051;-75
2021/01/17 12:06:18;;;;;;;28.02;10.68;;;1.50;99.90;;;;;;5071020;28;20029;-75
2021/01/17 12:08:54;;;;;;;29.88;12.60;;;1.40;99.90;;;;;;5052607;28;20365;-75
2021/01/17 12:11:40;;;;;;;18.30;10.70;;;1.40;99.90;;;;;;5053300;28;20049;-75
2021/01/17 12:14:07;;;;;;;18.65;10.05;;;1.50;99.90;;;;;;5051660;28;20039;-75
2021/01/17 12:16:44;;;;;;;28.58;10.73;;;1.60;99.90;;;;;;5052024;28;20411;-75
2021/01/17 12:19:14;;;;;;;23.00;10.02;;;1.60;99.90;;;;;;5051401;28;20044;-75
2021/01/17 12:21:41;;;;;;;15.30;9.80;;;1.60;99.90;;;;;;5017669;28;20028;-75
2021/01/17 12:24:12;;;;;;;21.25;9.77;;;1.60;99.90;;;;;;5051761;28;20021;-75
2021/01/17 12:26:38;;;;;;;27.00;10.82;;;1.80;99.90;;;;;;5052306;28;20025;-75
2021/01/17 12:29:05;;;;;;;22.13;9.75;;;1.80;99.90;;;;;;5051524;28;20029;-75
2021/01/17 12:31:31;;;;;;;14.35;7.72;;;1.70;99.90;;;;;;5051805;28;20029;-75
2021/01/17 12:33:58;;;;;;;16.23;8.75;;;1.70;99.90;;;;;;5033733;28;20021;-75
2021/01/17 12:36:26;;;;;;;11.10;6.63;;;1.30;99.90;;;;;;5033753;28;20021;-74
2021/01/17 12:38:52;;;;;;;15.82;7.30;;;1.50;99.90;;;;;;5051525;28;20090;-76
2021/01/17 12:41:23;;;;;;;12.75;7.88;;;1.50;99.90;;;;;;5051475;28;20536;-75
2021/01/17 12:43:49;;;;;;;15.05;7.95;;;1.30;99.90;;;;;;5017131;28;20032;-75
2021/01/17 12:46:16;;;;;;;19.45;8.55;;;1.30;99.90;;;;;;5050288;28;20431;-75
2021/01/17 12:48:42;;;;;;;20.80;8.27;;;1.30;99.90;;;;;;5051907;28;20021;-75
2021/01/17 12:51:08;;;;;;;15.82;7.65;;;1.40;99.90;;;;;;5033219;28;20022;-75
2021/01/17 12:53:40;;;;;;;18.58;7.20;;;1.30;99.90;;;;;;5032649;28;20044;-75
2021/01/17 12:56:07;;;;;;;16.85;10.35;;;1.40;99.90;;;;;;5061668;28;20024;-75
2021/01/17 12:58:33;;;;;;;15.10;9.18;;;1.40;99.90;;;;;;5071939;28;20067;-75